createdAt,value
2019-01-06T00:02:52.793Z,102654.53
2019-01-06T00:05:41.101Z,102657.83
2019-01-06T00:08:32.408Z,102658.08
2019-01-06T00:11:20.847Z,102655.83
2019-01-06T00:14:09.232Z,102651.77
2019-01-06T00:17:06.377Z,102656.59
2019-01-06T00:19:47.601Z,102653.77
2019-01-06T00:22:37.993Z,102648.55
2019-01-06T00:25:25.041Z,102655.75
2019-01-06T00:28:11.984Z,102651.96
2019-01-06T00:30:59.308Z,102646.05
2019-01-06T00:34:02.568Z,102652.88
2019-01-06T00:36:49.738Z,102656.59
2019-01-06T00:39:50.021Z,102655.19
2019-01-06T00:42:38.550Z,102660.14
2019-01-06T00:45:38.366Z,102663.31
2019-01-06T00:48:34.095Z,102667.47
2019-01-06T00:51:28.519Z,102663.68
2019-01-06T00:54:15.442Z,102673.23
2019-01-06T00:57:09.565Z,102677.77
2019-01-06T01:00:00.777Z,102681.27
2019-01-06T01:03:01.209Z,102679.91
2019-01-06T01:06:04.813Z,102686.68
2019-01-06T01:08:44.242Z,102681.00
2019-01-06T01:11:29.135Z,102683.18
2019-01-06T01:14:26.339Z,102688.48
2019-01-06T01:17:14.676Z,102685.83
2019-01-06T01:19:56.812Z,102689.13
2019-01-06T01:22:43.671Z,102689.62
2019-01-06T01:25:30.818Z,102689.44
2019-01-06T01:28:31.633Z,102689.70
2019-01-06T01:31:18.670Z,102692.95
2019-01-06T01:34:25.348Z,102683.94
2019-01-06T01:37:28.624Z,102689.20
2019-01-06T01:40:27.429Z,102700.72
2019-01-06T01:43:24.037Z,102704.87
2019-01-06T01:46:18.356Z,102700.00
2019-01-06T01:49:07.157Z,102698.19
2019-01-06T01:52:04.656Z,102704.23
2019-01-06T01:54:51.411Z,102704.16
2019-01-06T01:57:38.530Z,102703.43
2019-01-06T02:00:30.043Z,102708.70
2019-01-06T02:03:33.677Z,102706.57
2019-01-06T02:06:20.135Z,102702.95
2019-01-06T02:09:06.948Z,102707.05
2019-01-06T02:11:58.080Z,102713.00
2019-01-06T02:14:58.435Z,102711.67
2019-01-06T02:17:52.859Z,102711.39
2019-01-06T02:20:56.362Z,102720.17
2019-01-06T02:23:42.802Z,102711.31
2019-01-06T02:26:33.949Z,102718.69
2019-01-06T02:29:20.874Z,102714.18
2019-01-06T02:32:18.574Z,102716.64
2019-01-06T02:35:22.101Z,102722.23
2019-01-06T02:38:28.479Z,102719.50
2019-01-06T02:41:15.218Z,102725.58
2019-01-06T02:44:00.100Z,102730.45
2019-01-06T02:46:48.398Z,102725.54
2019-01-06T02:49:46.266Z,102727.27
2019-01-06T02:52:33.103Z,102730.90
2019-01-06T02:55:20.317Z,102722.92
2019-01-06T02:58:20.812Z,102721.14
2019-01-06T03:01:07.867Z,102717.12
2019-01-06T03:03:45.855Z,102721.15
2019-01-06T03:06:33.076Z,102725.14
2019-01-06T03:09:21.391Z,102727.71
2019-01-06T03:12:19.078Z,102736.25
2019-01-06T03:15:07.407Z,102729.94
2019-01-06T03:18:07.680Z,102732.50
2019-01-06T03:21:08.084Z,102736.90
2019-01-06T03:23:50.847Z,102732.91
2019-01-06T03:26:42.340Z,102727.63
2019-01-06T03:29:32.592Z,102737.42
2019-01-06T03:32:15.771Z,102740.04
2019-01-06T03:35:13.028Z,102734.80
2019-01-06T03:38:01.341Z,102737.11
2019-01-06T03:41:01.238Z,102732.71
2019-01-06T03:43:49.532Z,102731.27
2019-01-06T03:46:36.385Z,102726.27
2019-01-06T03:49:22.589Z,102733.62
2019-01-06T03:52:22.935Z,102732.30
2019-01-06T03:55:11.283Z,102729.80
2019-01-06T03:57:59.760Z,102730.97
2019-01-06T04:00:45.274Z,102732.97
2019-01-06T04:03:29.704Z,102738.50
2019-01-06T04:06:16.173Z,102731.73
2019-01-06T04:09:22.642Z,102731.94
2019-01-06T04:12:19.605Z,102731.69
2019-01-06T04:15:06.212Z,102732.49
2019-01-06T04:17:51.277Z,102735.45
2019-01-06T04:20:34.636Z,102733.97
2019-01-06T04:23:22.969Z,102727.48
2019-01-06T04:26:09.825Z,102729.47
2019-01-06T04:28:56.518Z,102731.97
2019-01-06T04:31:41.351Z,102734.19
2019-01-06T04:34:44.650Z,102731.65
2019-01-06T04:37:34.611Z,102730.25
2019-01-06T04:40:28.987Z,102723.98
2019-01-06T04:43:16.719Z,102723.57
2019-01-06T04:46:05.300Z,102725.82
2019-01-06T04:48:53.742Z,102723.91
2019-01-06T04:51:42.042Z,102720.25
2019-01-06T04:54:30.431Z,102715.70
2019-01-06T04:57:17.455Z,102711.87
2019-01-06T05:00:24.128Z,102710.50
2019-01-06T05:03:13.164Z,102721.25
2019-01-06T05:05:59.853Z,102724.38
2019-01-06T05:08:46.633Z,102724.75
2019-01-06T05:11:35.764Z,102727.41
2019-01-06T05:14:22.764Z,102725.96
2019-01-06T05:17:09.626Z,102729.06
2019-01-06T05:20:03.791Z,102731.80
2019-01-06T05:22:58.358Z,102733.45
2019-01-06T05:26:04.870Z,102733.45
2019-01-06T05:29:08.486Z,102733.53
2019-01-06T05:31:56.786Z,102733.94
2019-01-06T05:34:51.210Z,102737.44
2019-01-06T05:37:51.367Z,102739.63
2019-01-06T05:40:39.860Z,102746.67
2019-01-06T05:43:28.167Z,102748.48
2019-01-06T05:46:15.257Z,102752.95
2019-01-06T05:49:04.155Z,102751.73
2019-01-06T05:52:02.322Z,102752.42
2019-01-06T05:54:46.906Z,102752.87
2019-01-06T05:57:33.875Z,102743.56
2019-01-06T06:00:25.282Z,102744.64
2019-01-06T06:03:31.708Z,102745.89
2019-01-06T06:06:25.959Z,102752.38
2019-01-06T06:09:29.471Z,102754.64
2019-01-06T06:12:20.342Z,102755.37
2019-01-06T06:15:20.966Z,102754.00
2019-01-06T06:18:07.732Z,102758.22
2019-01-06T06:20:55.012Z,102757.38
2019-01-06T06:23:52.600Z,102759.88
2019-01-06T06:26:39.449Z,102761.17
2019-01-06T06:29:26.219Z,102765.45
2019-01-06T06:32:20.738Z,102770.36
2019-01-06T06:35:07.652Z,102760.05
2019-01-06T06:37:46.350Z,102772.94
2019-01-06T06:40:49.654Z,102771.50
2019-01-06T06:43:47.476Z,102768.80
2019-01-06T06:46:37.388Z,102773.72
2019-01-06T06:49:38.041Z,102773.34
2019-01-06T06:52:24.716Z,102771.17
2019-01-06T06:55:19.245Z,102776.45
2019-01-06T06:58:38.696Z,102773.20
2019-01-06T07:01:52.177Z,102782.09
2019-01-06T07:04:37.442Z,102785.59
2019-01-06T07:07:37.970Z,102786.45
2019-01-06T07:10:25.063Z,102790.62
2019-01-06T07:13:12.307Z,102794.98
2019-01-06T07:16:13.023Z,102800.26
2019-01-06T07:19:01.443Z,102798.97
2019-01-06T07:21:45.074Z,102812.03
2019-01-06T07:24:40.564Z,102812.30
2019-01-06T07:27:35.540Z,102812.55
2019-01-06T07:30:22.528Z,102814.69
2019-01-06T07:33:15.689Z,102819.91
2019-01-06T07:36:06.908Z,102832.27
2019-01-06T07:38:53.886Z,102832.27
2019-01-06T07:41:51.524Z,102832.55
2019-01-06T07:44:49.075Z,102831.95
2019-01-06T07:47:37.187Z,102831.95
2019-01-06T07:50:37.814Z,102837.20
2019-01-06T07:53:29.742Z,102847.89
2019-01-06T07:56:17.888Z,102853.27
2019-01-06T07:59:09.115Z,102850.55
2019-01-06T08:01:58.679Z,102852.83
2019-01-06T08:04:45.959Z,102854.02
2019-01-06T08:07:32.694Z,102855.20
2019-01-06T08:10:28.110Z,102859.32
2019-01-06T08:13:19.212Z,102865.92
2019-01-06T08:16:20.424Z,102870.51
2019-01-06T08:19:08.714Z,102869.11
2019-01-06T08:22:08.991Z,102873.61
2019-01-06T08:24:57.310Z,102873.81
2019-01-06T08:27:43.598Z,102878.66
2019-01-06T08:30:49.922Z,102874.27
2019-01-06T08:33:36.674Z,102874.97
2019-01-06T08:36:24.995Z,102879.41
2019-01-06T08:39:11.782Z,102884.45
2019-01-06T08:42:05.981Z,102882.33
2019-01-06T08:44:55.360Z,102880.12
2019-01-06T08:47:56.372Z,102878.05
2019-01-06T08:50:44.746Z,102875.83
2019-01-06T08:53:42.061Z,102875.15
2019-01-06T08:56:33.231Z,102875.72
2019-01-06T08:59:14.473Z,102875.62
2019-01-06T09:02:14.906Z,102874.16
2019-01-06T09:05:03.227Z,102877.45
2019-01-06T09:07:51.669Z,102874.73
2019-01-06T09:10:39.985Z,102879.58
2019-01-06T09:13:20.339Z,102883.49
2019-01-06T09:16:14.563Z,102883.53
2019-01-06T09:19:21.066Z,102885.27
2019-01-06T09:22:15.273Z,102881.78
2019-01-06T09:25:02.118Z,102888.16
2019-01-06T09:27:50.439Z,102889.89
2019-01-06T09:30:44.784Z,102895.80
2019-01-06T09:33:27.340Z,102905.41
2019-01-06T09:36:15.184Z,102904.45
2019-01-06T09:39:10.387Z,102898.59
2019-01-06T09:41:57.782Z,102898.11
2019-01-06T09:44:49.004Z,102902.47
2019-01-06T09:47:41.267Z,102899.54
2019-01-06T09:50:31.357Z,102896.30
2019-01-06T09:53:26.080Z,102898.59
2019-01-06T09:56:23.533Z,102894.59
2019-01-06T09:59:29.829Z,102898.45
2019-01-06T10:02:17.498Z,102895.61
2019-01-06T10:05:05.883Z,102902.29
2019-01-06T10:08:09.425Z,102896.97
2019-01-06T10:11:07.308Z,102897.52
2019-01-06T10:13:58.738Z,102896.49
2019-01-06T10:16:55.983Z,102896.49
2019-01-06T10:19:47.158Z,102902.43
2019-01-06T10:22:50.450Z,102904.58
2019-01-06T10:25:37.168Z,102903.03
2019-01-06T10:28:31.609Z,102899.52
2019-01-06T10:31:19.959Z,102897.16
2019-01-06T10:34:08.406Z,102903.77
2019-01-06T10:37:12.182Z,102899.38
2019-01-06T10:40:09.751Z,102899.92
2019-01-06T10:43:07.251Z,102890.98
2019-01-06T10:46:05.113Z,102894.98
2019-01-06T10:49:05.562Z,102895.45
2019-01-06T10:51:48.012Z,102883.13
2019-01-06T10:54:41.055Z,102879.95
2019-01-06T10:57:32.528Z,102885.33
2019-01-06T11:00:19.142Z,102883.48
2019-01-06T11:03:07.248Z,102887.00
2019-01-06T11:06:08.406Z,102877.58
2019-01-06T11:09:05.837Z,102870.52
2019-01-06T11:12:00.329Z,102871.84
2019-01-06T11:14:54.923Z,102876.32
2019-01-06T11:17:43.302Z,102878.87
2019-01-06T11:20:34.448Z,102886.33
2019-01-06T11:23:24.133Z,102888.70
2019-01-06T11:26:15.729Z,102885.73
2019-01-06T11:29:02.452Z,102886.92
2019-01-06T11:31:49.311Z,102886.28
2019-01-06T11:34:44.489Z,102881.27
2019-01-06T11:37:32.930Z,102885.70
2019-01-06T11:40:36.452Z,102889.08
2019-01-06T11:43:27.917Z,102876.84
2019-01-06T11:46:34.465Z,102880.75
2019-01-06T11:49:23.214Z,102880.27
2019-01-06T11:52:29.556Z,102878.47
2019-01-06T11:55:16.470Z,102883.30
2019-01-06T11:58:19.952Z,102883.02
2019-01-06T12:01:08.628Z,102872.04
2019-01-06T12:04:08.035Z,102877.03
2019-01-06T12:07:14.507Z,102877.39
2019-01-06T12:10:09.226Z,102880.69
2019-01-06T12:13:03.539Z,102880.23
2019-01-06T12:15:49.421Z,102880.98
2019-01-06T12:18:38.690Z,102877.84
2019-01-06T12:21:26.798Z,102873.70
2019-01-06T12:24:18.075Z,102874.03
2019-01-06T12:27:15.566Z,102875.13
2019-01-06T12:30:02.632Z,102873.59
2019-01-06T12:32:50.939Z,102877.07
2019-01-06T12:35:57.681Z,102879.25
2019-01-06T12:38:43.478Z,102871.63
2019-01-06T12:41:42.342Z,102872.27
2019-01-06T12:44:28.291Z,102864.21
2019-01-06T12:47:22.634Z,102863.32
2019-01-06T12:50:23.031Z,102862.95
2019-01-06T12:53:10.373Z,102860.37
2019-01-06T12:55:58.704Z,102869.41
2019-01-06T12:58:45.774Z,102869.25
2019-01-06T13:01:34.042Z,102865.58
2019-01-06T13:04:21.138Z,102863.73
2019-01-06T13:07:07.787Z,102862.03
2019-01-06T13:09:56.303Z,102862.43
2019-01-06T13:12:53.532Z,102861.05
2019-01-06T13:15:42.002Z,102865.66
2019-01-06T13:18:28.754Z,102862.72
2019-01-06T13:21:15.882Z,102865.41
2019-01-06T13:24:02.719Z,102870.94
2019-01-06T13:27:00.224Z,102874.33
2019-01-06T13:29:57.129Z,102878.36
2019-01-06T13:33:00.464Z,102880.90
2019-01-06T13:36:04.069Z,102879.20
2019-01-06T13:39:01.578Z,102882.39
2019-01-06T13:42:00.106Z,102881.79
2019-01-06T13:44:44.124Z,102883.72
2019-01-06T13:47:30.921Z,102877.27
2019-01-06T13:50:18.804Z,102883.68
2019-01-06T13:53:25.133Z,102882.63
2019-01-06T13:56:19.475Z,102882.06
2019-01-06T13:59:06.115Z,102880.82
2019-01-06T14:01:57.397Z,102882.15
2019-01-06T14:04:41.749Z,102883.48
2019-01-06T14:07:28.761Z,102884.69
2019-01-06T14:10:29.045Z,102888.68
2019-01-06T14:13:29.084Z,102883.48
2019-01-06T14:16:21.286Z,102884.69
2019-01-06T14:19:04.543Z,102887.27
2019-01-06T14:21:53.004Z,102884.13
2019-01-06T14:24:50.569Z,102890.20
2019-01-06T14:27:30.818Z,102891.98
2019-01-06T14:30:31.138Z,102887.38
2019-01-06T14:33:34.397Z,102893.84
2019-01-06T14:36:31.706Z,102890.38
2019-01-06T14:39:18.760Z,102886.46
2019-01-06T14:42:05.818Z,102892.88
2019-01-06T14:45:12.542Z,102886.11
2019-01-06T14:48:03.553Z,102893.92
2019-01-06T14:50:50.342Z,102896.55
2019-01-06T14:53:38.112Z,102893.67
2019-01-06T14:56:26.500Z,102894.56
2019-01-06T14:59:15.001Z,102895.48
2019-01-06T15:02:04.107Z,102892.50
2019-01-06T15:05:07.409Z,102892.55
2019-01-06T15:08:05.173Z,102895.82
2019-01-06T15:10:49.745Z,102894.77
2019-01-06T15:13:48.145Z,102892.43
2019-01-06T15:16:35.016Z,102900.01
2019-01-06T15:19:35.369Z,102900.05
2019-01-06T15:22:23.103Z,102899.97
2019-01-06T15:25:20.076Z,102892.71
2019-01-06T15:28:12.266Z,102899.24
2019-01-06T15:31:15.803Z,102895.53
2019-01-06T15:34:04.264Z,102898.64
2019-01-06T15:36:51.338Z,102896.38
2019-01-06T15:39:48.946Z,102897.47
2019-01-06T15:42:40.320Z,102900.49
2019-01-06T15:45:39.719Z,102899.36
2019-01-06T15:48:40.277Z,102901.53
2019-01-06T15:51:31.655Z,102896.21
2019-01-06T15:54:22.737Z,102899.04
2019-01-06T15:57:26.344Z,102900.20
2019-01-06T16:00:32.624Z,102905.00
2019-01-06T16:03:24.094Z,102905.97
2019-01-06T16:06:13.414Z,102899.40
2019-01-06T16:09:00.506Z,102897.94
2019-01-06T16:11:47.172Z,102903.55
2019-01-06T16:14:34.353Z,102904.65
2019-01-06T16:17:31.873Z,102902.91
2019-01-06T16:20:29.823Z,102907.23
2019-01-06T16:23:27.284Z,102917.03
2019-01-06T16:26:33.835Z,102919.38
2019-01-06T16:29:20.282Z,102919.25
2019-01-06T16:32:15.226Z,102927.16
2019-01-06T16:35:02.288Z,102926.23
2019-01-06T16:37:49.167Z,102932.92
2019-01-06T16:40:40.251Z,102929.17
2019-01-06T16:43:31.947Z,102932.02
2019-01-06T16:46:19.012Z,102934.80
2019-01-06T16:49:06.234Z,102922.94
2019-01-06T16:51:53.276Z,102924.67
2019-01-06T16:54:40.427Z,102923.64
2019-01-06T16:57:27.099Z,102920.41
2019-01-06T17:00:14.379Z,102917.23
2019-01-06T17:02:53.091Z,102918.97
2019-01-06T17:05:39.484Z,102924.02
2019-01-06T17:08:27.920Z,102926.06
2019-01-06T17:11:16.433Z,102929.09
2019-01-06T17:14:10.841Z,102920.81
2019-01-06T17:17:02.218Z,102921.34
2019-01-06T17:20:08.688Z,102921.99
2019-01-06T17:23:03.158Z,102928.56
2019-01-06T17:26:06.424Z,102925.70
2019-01-06T17:29:10.107Z,102929.78
2019-01-06T17:31:57.115Z,102928.52
2019-01-06T17:35:03.831Z,102931.19
2019-01-06T17:37:50.646Z,102935.50
2019-01-06T17:40:34.418Z,102942.04
2019-01-06T17:43:21.577Z,102935.78
2019-01-06T17:46:09.537Z,102935.86
2019-01-06T17:48:57.848Z,102934.94
2019-01-06T17:51:44.939Z,102935.90
2019-01-06T17:54:42.441Z,102936.55
2019-01-06T17:57:32.569Z,102941.03
2019-01-06T18:00:31.430Z,102936.91
2019-01-06T18:03:18.278Z,102939.98
2019-01-06T18:06:12.420Z,102946.88
2019-01-06T18:09:10.103Z,102949.09
2019-01-06T18:11:56.947Z,102950.42
2019-01-06T18:14:50.726Z,102944.33
2019-01-06T18:17:51.594Z,102950.53
2019-01-06T18:20:42.939Z,102951.83
2019-01-06T18:23:48.448Z,102951.87
2019-01-06T18:26:35.650Z,102949.24
2019-01-06T18:29:38.931Z,102946.06
2019-01-06T18:32:42.489Z,102949.20
2019-01-06T18:35:23.596Z,102956.90
2019-01-06T18:38:08.573Z,102951.95
2019-01-06T18:40:55.340Z,102954.53
2019-01-06T18:43:58.706Z,102946.19
2019-01-06T18:46:49.557Z,102947.51
2019-01-06T18:49:56.277Z,102946.55
2019-01-06T18:52:53.100Z,102942.93
2019-01-06T18:55:50.252Z,102944.63
2019-01-06T18:58:38.648Z,102949.47
2019-01-06T19:01:28.858Z,102947.33
2019-01-06T19:04:29.398Z,102944.67
2019-01-06T19:07:15.407Z,102944.73
2019-01-06T19:10:15.683Z,102943.34
2019-01-06T19:13:07.220Z,102940.53
2019-01-06T19:16:07.778Z,102936.13
2019-01-06T19:19:08.481Z,102940.01
2019-01-06T19:21:59.833Z,102937.42
2019-01-06T19:24:46.683Z,102936.20
2019-01-06T19:27:33.676Z,102931.36
2019-01-06T19:30:20.935Z,102938.34
2019-01-06T19:33:07.616Z,102938.50
2019-01-06T19:35:56.105Z,102942.52
2019-01-06T19:38:47.300Z,102943.08
2019-01-06T19:41:35.723Z,102931.03
2019-01-06T19:44:33.343Z,102936.69
2019-01-06T19:47:25.359Z,102932.47
2019-01-06T19:50:19.711Z,102933.95
2019-01-06T19:53:01.760Z,102935.13
2019-01-06T19:55:48.515Z,102922.72
2019-01-06T19:58:49.182Z,102932.73
2019-01-06T20:01:46.495Z,102935.91
2019-01-06T20:04:42.784Z,102931.03
2019-01-06T20:07:31.139Z,102937.24
2019-01-06T20:10:22.621Z,102939.50
2019-01-06T20:13:10.994Z,102931.95
2019-01-06T20:15:57.964Z,102924.42
2019-01-06T20:18:54.507Z,102927.56
2019-01-06T20:21:54.779Z,102925.34
2019-01-06T20:24:41.522Z,102919.58
2019-01-06T20:27:45.290Z,102928.89
2019-01-06T20:30:31.824Z,102929.26
2019-01-06T20:33:18.764Z,102927.93
2019-01-06T20:36:10.213Z,102928.22
2019-01-06T20:38:58.922Z,102933.10
2019-01-06T20:41:46.064Z,102929.38
2019-01-06T20:44:33.027Z,102929.78
2019-01-06T20:47:14.817Z,102931.99
2019-01-06T20:50:21.163Z,102931.55
2019-01-06T20:53:12.587Z,102938.13
2019-01-06T20:55:59.709Z,102934.95
2019-01-06T20:58:47.516Z,102935.73
2019-01-06T21:01:34.475Z,102932.58
2019-01-06T21:04:27.599Z,102933.06
2019-01-06T21:07:14.727Z,102932.66
2019-01-06T21:09:54.095Z,102933.10
2019-01-06T21:12:42.560Z,102935.02
2019-01-06T21:15:45.898Z,102924.90
2019-01-06T21:18:47.010Z,102928.37
2019-01-06T21:21:34.266Z,102929.62
2019-01-06T21:24:25.582Z,102937.02
2019-01-06T21:27:28.266Z,102931.98
2019-01-06T21:30:22.540Z,102937.02
2019-01-06T21:33:13.943Z,102942.27
2019-01-06T21:36:11.300Z,102940.56
2019-01-06T21:38:59.575Z,102939.75
2019-01-06T21:41:47.968Z,102942.78
2019-01-06T21:44:46.950Z,102945.70
2019-01-06T21:47:41.314Z,102941.74
2019-01-06T21:50:29.672Z,102946.48
2019-01-06T21:53:16.207Z,102941.05
2019-01-06T21:56:04.508Z,102941.93
2019-01-06T21:58:55.775Z,102941.86
2019-01-06T22:01:42.603Z,102939.56
2019-01-06T22:04:31.157Z,102943.92
2019-01-06T22:07:17.925Z,102940.53
2019-01-06T22:10:04.729Z,102940.16
2019-01-06T22:12:56.222Z,102938.27
2019-01-06T22:15:53.936Z,102941.01
2019-01-06T22:18:48.276Z,102938.39
2019-01-06T22:21:42.553Z,102939.67
2019-01-06T22:24:21.291Z,102934.54
2019-01-06T22:27:09.663Z,102937.72
2019-01-06T22:29:56.434Z,102934.17
2019-01-06T22:32:43.658Z,102935.50
2019-01-06T22:35:30.469Z,102942.19
2019-01-06T22:38:26.364Z,102934.62
2019-01-06T22:41:17.784Z,102937.72
2019-01-06T22:44:15.416Z,102936.02
2019-01-06T22:47:02.380Z,102935.09
2019-01-06T22:49:54.611Z,102931.95
2019-01-06T22:52:42.923Z,102931.81
2019-01-06T22:55:29.901Z,102930.11
2019-01-06T22:58:30.452Z,102929.92
2019-01-06T23:01:22.206Z,102927.41
2019-01-06T23:04:10.537Z,102934.17
2019-01-06T23:07:01.774Z,102928.92
2019-01-06T23:09:48.506Z,102928.92
2019-01-06T23:12:54.812Z,102930.88
2019-01-06T23:15:54.991Z,102930.33
2019-01-06T23:18:41.969Z,102933.80
2019-01-06T23:21:28.717Z,102931.21
2019-01-06T23:24:15.813Z,102930.77
2019-01-06T23:27:03.068Z,102930.25
2019-01-06T23:29:50.058Z,102928.59
2019-01-06T23:32:41.156Z,102928.15
2019-01-06T23:35:29.753Z,102923.05
2019-01-06T23:38:24.194Z,102927.78
2019-01-06T23:41:11.281Z,102925.48
2019-01-06T23:44:11.816Z,102930.19
2019-01-06T23:47:03.277Z,102933.73
2019-01-06T23:50:09.859Z,102934.98
2019-01-06T23:53:13.262Z,102938.83
2019-01-06T23:56:00.120Z,102946.37
2019-01-06T23:59:03.867Z,102940.34
